Time;durP1;ratioP1;P1;durP2;ratioP2;P2;SDS_P1;SDS_P2;PMS_P1;PMS_P2;Temp;Humidity;BMP_temperature;BMP_pressure;BME280_temperature;BME280_humidity;BME280_pressure;Samples;Min_cycle;Max_cycle;Signal;HPM_P1;HPM_P2
2023/01/04 00:00:59;;;;;;;36.03;17.80;;;;;;;1.54;84.96;100988.91;5090821;28;20032;-29
2023/01/04 00:03:24;;;;;;;35.08;17.45;;;;;;;1.79;84.41;100997.22;5090581;28;20020;-26
2023/01/04 00:05:50;;;;;;;38.95;18.80;;;;;;;1.88;83.93;100993.78;5090539;28;20016;-27
2023/01/04 00:08:15;;;;;;;44.67;20.15;;;;;;;1.98;83.44;101002.50;5083715;28;20027;-27
2023/01/04 00:10:41;;;;;;;43.22;21.63;;;;;;;1.54;84.25;101004.69;5075601;28;20040;-25
2023/01/04 00:13:06;;;;;;;46.10;21.27;;;;;;;1.44;82.36;100988.09;5070107;28;20047;-26
2023/01/04 00:15:32;;;;;;;32.33;18.33;;;;;;;1.43;82.84;101011.88;5069994;28;20473;-27
2023/01/04 00:17:57;;;;;;;43.83;20.67;;;;;;;1.34;83.75;100997.75;5070065;28;20025;-25
2023/01/04 00:20:22;;;;;;;36.47;19.42;;;;;;;1.24;86.11;101008.25;5069665;28;20029;-25
2023/01/04 00:22:48;;;;;;;40.05;18.50;;;;;;;1.05;86.02;100995.88;5051858;28;20048;-26
2023/01/04 00:25:13;;;;;;;42.95;20.20;;;;;;;1.04;85.76;101006.53;5069461;28;20028;-25
2023/01/04 00:27:39;;;;;;;77.18;29.55;;;;;;;0.86;85.34;100993.19;5069699;28;20028;-25
2023/01/04 00:30:04;;;;;;;104.85;35.70;;;;;;;1.31;86.25;101013.78;5069435;28;20082;-26
2023/01/04 00:32:30;;;;;;;47.63;21.15;;;;;;;1.69;84.55;101007.75;5051678;28;20028;-25
2023/01/04 00:34:55;;;;;;;42.70;21.13;;;;;;;1.68;84.02;101013.16;5069771;28;20056;-25
2023/01/04 00:37:21;;;;;;;44.47;20.40;;;;;;;1.51;84.57;100989.22;5051410;28;20040;-25
2023/01/04 00:39:46;;;;;;;57.90;24.38;;;;;;;1.63;83.62;101015.34;5069417;28;20024;-26
2023/01/04 00:42:12;;;;;;;46.60;20.30;;;;;;;1.83;83.44;101019.66;5069177;28;20490;-29
2023/01/04 00:44:37;;;;;;;45.90;20.63;;;;;;;1.62;84.16;101013.72;5050785;28;20043;-25
2023/01/04 00:47:03;;;;;;;37.78;19.05;;;;;;;1.17;84.52;100997.44;5069302;28;20044;-28
2023/01/04 00:49:30;;;;;;;41.83;18.73;;;;;;;1.32;84.60;101015.44;5069352;28;20071;-26
2023/01/04 00:51:56;;;;;;;37.13;18.05;;;;;;;1.24;85.32;101024.00;5051399;28;20032;-28
2023/01/04 00:54:22;;;;;;;36.17;17.92;;;;;;;1.23;84.84;101003.09;5068976;28;20489;-26
2023/01/04 00:56:48;;;;;;;34.65;18.60;;;;;;;1.87;83.01;101028.94;5050953;28;20084;-27
2023/01/04 00:59:17;;;;;;;34.30;17.48;;;;;;;1.87;81.57;101026.31;5068952;28;20028;-26
2023/01/04 01:01:43;;;;;;;38.65;18.48;;;;;;;1.30;84.17;101033.97;5069431;28;20135;-26
2023/01/04 01:04:11;;;;;;;35.72;17.75;;;;;;;1.39;83.51;101011.34;5068989;28;20047;-25
2023/01/04 01:06:37;;;;;;;;;;;;;;;1.64;83.78;101030.19;5069491;28;20028;-26
2023/01/04 01:09:02;;;;;;;37.92;17.92;;;;;;;1.51;83.48;101018.13;5069140;28;20391;-25
2023/01/04 01:11:29;;;;;;;38.08;17.25;;;;;;;1.03;84.10;101025.88;5068897;28;20085;-28
2023/01/04 01:13:55;;;;;;;34.47;17.35;;;;;;;0.82;84.44;101033.81;5069080;28;20041;-25
2023/01/04 01:16:22;;;;;;;37.80;16.02;;;;;;;0.55;84.61;101015.06;5068926;28;20115;-26
2023/01/04 01:18:48;;;;;;;38.80;18.90;;;;;;;1.08;84.62;101037.63;5069136;28;20032;-25
2023/01/04 01:21:19;;;;;;;43.75;19.67;;;;;;;1.05;84.65;101040.53;5068864;28;20039;-26
2023/01/04 01:23:45;;;;;;;78.28;32.55;;;;;;;0.74;85.67;101037.94;5069108;28;20024;-26
2023/01/04 01:26:15;;;;;;;56.65;24.65;;;;;;;0.64;87.54;101025.72;5050671;28;20029;-27
2023/01/04 01:28:40;;;;;;;51.03;22.92;;;;;;;0.43;88.57;101023.09;5051035;28;20020;-25
2023/01/04 01:31:17;;;;;;;129.43;41.33;;;;;;;0.47;88.65;101001.75;5068685;28;20037;-25
2023/01/04 01:33:45;;;;;;;91.32;33.28;;;;;;;0.47;87.83;101009.63;5069002;28;20029;-25
2023/01/04 01:36:12;;;;;;;93.20;34.63;;;;;;;0.82;86.35;101031.19;5068741;28;20040;-25
2023/01/04 01:38:37;;;;;;;56.45;24.77;;;;;;;0.89;86.20;101030.53;5069020;28;20502;-26
2023/01/04 01:41:05;;;;;;;49.72;21.05;;;;;;;0.76;87.17;101030.75;5068688;28;20040;-25
2023/01/04 01:43:51;;;;;;;52.28;22.35;;;;;;;0.92;86.32;101018.91;5068817;28;20054;-26
2023/01/04 01:46:36;;;;;;;43.15;18.77;;;;;;;1.60;84.89;101030.44;5068364;28;20143;-26
2023/01/04 01:49:17;;;;;;;46.00;19.73;;;;;;;1.38;84.77;101025.44;5068189;28;20562;-24
2023/01/04 01:51:43;;;;;;;36.30;18.45;;;;;;;0.97;87.39;100995.72;5068663;28;20086;-26
2023/01/04 01:54:44;;;;;;;31.33;15.43;;;;;;;0.87;87.25;101018.50;5068412;28;20035;-26
2023/01/04 01:57:15;;;;;;;30.05;14.57;;;;;;;0.80;89.12;101031.34;5071027;28;20041;-26
2023/01/04 01:59:43;;;;;;;29.80;14.52;;;;;;;1.03;88.45;101018.00;5072698;28;20485;-26
2023/01/04 02:02:09;;;;;;;36.15;16.95;;;;;;;1.13;87.58;101017.06;5054406;28;20508;-26
2023/01/04 02:04:38;;;;;;;37.33;17.25;;;;;;;0.91;87.51;101006.75;5072407;28;20029;-26
2023/01/04 02:07:05;;;;;;;55.28;25.08;;;;;;;0.70;87.71;101020.78;5072311;28;20111;-26
2023/01/04 02:09:32;;;;;;;35.28;16.20;;;;;;;0.56;88.74;101002.75;5072176;28;20566;-28
2023/01/04 02:11:57;;;;;;;39.30;17.63;;;;;;;0.75;88.18;101026.44;5072364;28;20031;-26
2023/01/04 02:14:26;;;;;;;33.53;19.10;;;;;;;1.16;87.17;101034.34;5072208;28;20024;-27
2023/01/04 02:16:57;;;;;;;165.85;69.65;;;;;;;0.94;86.91;101001.22;5072317;28;20106;-27
2023/01/04 02:19:55;;;;;;;229.95;83.25;;;;;;;0.98;87.57;101039.41;5081513;28;20100;-27
2023/01/04 02:22:58;;;;;;;131.82;55.20;;;;;;;1.04;87.61;101036.25;5089676;28;20048;-25
2023/01/04 02:25:54;;;;;;;74.68;39.45;;;;;;;1.14;87.23;101045.00;5081273;28;20024;-26
2023/01/04 02:28:28;;;;;;;27.48;13.82;;;;;;;0.99;87.95;101035.81;5088915;28;20032;-26
2023/01/04 02:31:09;;;;;;;28.48;14.80;;;;;;;0.77;87.22;101024.53;5092393;28;20028;-25
2023/01/04 02:33:54;;;;;;;30.73;17.65;;;;;;;0.85;87.66;101021.25;5089786;28;20485;-27
2023/01/04 02:36:47;;;;;;;28.90;16.55;;;;;;;0.69;88.09;101034.03;5082238;28;20028;-28
2023/01/04 02:39:30;;;;;;;34.72;18.73;;;;;;;0.65;88.12;101037.88;5081286;28;20400;-26
2023/01/04 02:42:15;;;;;;;30.83;16.42;;;;;;;0.55;87.45;101043.06;5081825;28;20021;-26
2023/01/04 02:44:54;;;;;;;27.25;14.93;;;;;;;0.94;86.43;101027.50;5082622;28;20070;-26
2023/01/04 02:50:35;;;;;;;35.30;21.40;;;;;;;0.87;85.95;101042.97;5082242;28;20060;-25
2023/01/04 02:53:01;;;;;;;29.90;16.23;;;;;;;0.73;86.27;101041.50;5082140;28;20044;-28
2023/01/04 02:55:39;;;;;;;33.80;19.88;;;;;;;0.73;85.92;101031.00;5080000;28;20454;-26
2023/01/04 02:58:27;;;;;;;29.33;16.77;;;;;;;0.89;84.99;101027.91;5082189;28;20511;-26
2023/01/04 03:07:17;;;;;;;33.13;18.88;;;;;;;0.82;84.93;101058.28;5070801;28;20040;-29
2023/01/04 03:09:46;;;;;;;28.48;15.93;;;;;;;0.97;84.10;101054.34;5053249;28;20474;-29
2023/01/04 03:12:30;;;;;;;30.63;17.33;;;;;;;0.82;84.06;101046.94;5073149;28;20438;-26
2023/01/04 03:15:08;;;;;;;57.22;27.75;;;;;;;0.94;83.22;101053.75;5064167;28;20024;-27
2023/01/04 03:17:41;;;;;;;97.75;40.10;;;;;;;0.76;84.10;101030.75;5080131;28;20036;-25
2023/01/04 03:20:10;;;;;;;120.40;48.83;;;;;;;1.02;83.52;101046.06;5063282;28;20035;-29
2023/01/04 03:37:03;;;;;;;35.42;19.30;;;;;;;0.62;85.18;101038.16;5070874;28;20089;-27
2023/01/04 03:48:56;;;;;;;34.50;18.20;;;;;;;0.65;85.64;101064.94;5070815;28;20124;-26
2023/01/04 03:51:27;;;;;;;38.75;24.88;;;;;;;0.66;85.59;101037.75;5070456;28;20115;-26
2023/01/04 03:54:13;;;;;;;50.45;33.72;;;;;;;0.71;85.92;101027.69;5052901;28;20424;-25
2023/01/04 03:56:42;;;;;;;28.35;16.65;;;;;;;0.84;85.22;101055.50;5070538;28;20111;-27
2023/01/04 03:59:08;;;;;;;28.60;15.50;;;;;;;0.78;85.93;101062.97;5052158;28;20025;-25
2023/01/04 04:01:35;;;;;;;35.13;19.42;;;;;;;0.78;85.78;101054.25;5052446;28;20024;-27
2023/01/04 04:09:29;;;;;;;123.13;43.17;;;;;;;0.75;85.87;101039.59;5070331;28;20081;-25
2023/01/04 04:11:54;;;;;;;34.25;17.48;;;;;;;0.86;85.79;101056.22;5070142;28;20028;-26
2023/01/04 04:14:20;;;;;;;214.73;96.63;;;;;;;0.81;85.67;101048.75;5051711;28;20020;-25
2023/01/04 04:16:45;;;;;;;60.60;32.53;;;;;;;0.67;86.69;101052.53;5070106;28;20036;-26
2023/01/04 04:19:11;;;;;;;61.03;36.20;;;;;;;0.93;86.09;101052.13;5069838;28;20029;-28
2023/01/04 04:21:36;;;;;;;54.78;31.85;;;;;;;0.72;86.66;101050.38;5052107;28;20493;-27
2023/01/04 04:24:03;;;;;;;108.57;51.58;;;;;;;0.76;86.93;101057.00;5069587;28;20016;-26
2023/01/04 04:26:28;;;;;;;55.25;28.92;;;;;;;0.64;86.58;101042.31;5069913;28;20029;-28
2023/01/04 04:28:54;;;;;;;56.85;34.75;;;;;;;0.44;88.43;101062.34;5069836;28;20031;-28
2023/01/04 04:31:19;;;;;;;263.15;103.55;;;;;;;0.42;89.27;101058.19;5069213;28;20028;-28
2023/01/04 04:33:44;;;;;;;70.32;34.58;;;;;;;0.47;88.35;101066.50;5051947;28;20090;-25
2023/01/04 04:36:10;;;;;;;77.60;36.45;;;;;;;0.33;89.49;101060.63;5069714;28;20032;-27
2023/01/04 04:38:35;;;;;;;79.20;47.40;;;;;;;0.29;89.38;101061.84;5051502;28;20479;-25
2023/01/04 04:43:54;;;;;;;36.22;18.27;;;;;;;0.23;88.06;101090.38;5054753;28;20120;-25
2023/01/04 04:46:20;;;;;;;29.65;15.43;;;;;;;-0.18;89.30;101066.59;5068980;28;20120;-25
2023/01/04 04:48:45;;;;;;;26.67;14.23;;;;;;;0.08;88.49;101076.72;5069518;28;20082;-25
2023/01/04 04:51:10;;;;;;;31.25;15.63;;;;;;;0.10;87.81;101082.66;5069227;28;20067;-25
2023/01/04 04:53:36;;;;;;;28.48;15.00;;;;;;;0.02;87.71;101069.34;5051382;28;20036;-26
2023/01/04 04:56:01;;;;;;;55.25;25.67;;;;;;;0.24;87.79;101092.03;5051095;28;20210;-26
2023/01/04 04:58:27;;;;;;;71.43;32.15;;;;;;;0.16;87.82;101096.13;5069118;28;20029;-25
2023/01/04 05:00:52;;;;;;;151.43;59.83;;;;;;;0.13;88.20;101085.88;5069412;28;20039;-26
2023/01/04 05:03:17;;;;;;;187.18;68.30;;;;;;;0.52;87.33;101094.03;5069119;28;20032;-26
2023/01/04 05:05:43;;;;;;;89.15;36.65;;;;;;;0.66;86.67;101103.38;5069295;28;20093;-27
2023/01/04 05:08:08;;;;;;;96.10;39.95;;;;;;;0.50;85.87;101076.75;5068900;28;20082;-25
2023/01/04 05:10:34;;;;;;;54.60;27.50;;;;;;;0.60;86.72;101109.16;5051080;28;20484;-24
2023/01/04 05:12:59;;;;;;;54.50;28.63;;;;;;;0.31;86.71;101086.16;5068793;28;20033;-25
2023/01/04 05:15:32;;;;;;;41.75;22.60;;;;;;;0.52;86.62;101108.97;5069129;28;20033;-29
2023/01/04 05:17:58;;;;;;;39.78;20.38;;;;;;;0.46;85.60;101101.59;5068896;28;20020;-25
2023/01/04 05:20:24;;;;;;;30.40;16.10;;;;;;;0.32;86.75;101121.09;5069001;28;20571;-26
2023/01/04 05:22:50;;;;;;;34.97;17.20;;;;;;;0.54;85.85;101120.16;5069174;28;20083;-25
2023/01/04 05:25:16;;;;;;;32.30;16.17;;;;;;;0.32;87.51;101121.09;5068703;28;20056;-27
2023/01/04 05:27:42;;;;;;;28.20;15.35;;;;;;;0.52;86.35;101109.78;5069178;28;20056;-31
2023/01/04 05:32:54;;;;;;;32.50;17.98;;;;;;;0.69;85.03;101103.13;5068921;28;20034;-26
2023/01/04 05:35:20;;;;;;;34.17;17.80;;;;;;;0.32;86.08;101103.56;5068605;28;20024;-27
2023/01/04 05:37:45;;;;;;;35.60;20.98;;;;;;;0.23;86.12;101109.56;5050749;28;20465;-26
2023/01/04 05:40:11;;;;;;;30.98;17.33;;;;;;;0.36;87.24;101133.84;5068594;28;20028;-26
2023/01/04 05:42:36;;;;;;;46.85;25.02;;;;;;;0.63;85.69;101119.38;5068826;28;20416;-25
2023/01/04 05:45:02;;;;;;;38.42;19.92;;;;;;;0.48;86.12;101125.91;5068586;28;20496;-25
2023/01/04 05:47:27;;;;;;;38.17;18.13;;;;;;;0.44;86.33;101141.09;5050568;28;20634;-26
2023/01/04 05:49:53;;;;;;;40.10;19.33;;;;;;;0.32;85.89;101105.34;5050391;28;20032;-27
2023/01/04 05:52:19;;;;;;;34.90;19.67;;;;;;;0.29;86.09;101135.31;5068504;28;20032;-25
2023/01/04 05:54:45;;;;;;;44.85;22.45;;;;;;;0.43;85.49;101128.06;5068794;28;20036;-26
2023/01/04 05:57:11;;;;;;;46.70;22.00;;;;;;;0.49;85.09;101131.06;5068506;28;20028;-26
2023/01/04 05:59:36;;;;;;;74.00;32.95;;;;;;;0.21;86.82;101135.09;5050666;28;20034;-26
2023/01/04 06:02:03;;;;;;;34.05;17.98;;;;;;;0.06;87.49;101152.94;5068410;28;20035;-29
2023/01/04 06:04:29;;;;;;;46.00;18.92;;;;;;;-0.12;88.28;101154.38;5050619;28;20633;-25
2023/01/04 06:06:54;;;;;;;58.40;28.15;;;;;;;-0.16;88.23;101127.59;5068318;28;20035;-25
2023/01/04 06:09:19;;;;;;;46.03;24.85;;;;;;;0.08;88.30;101134.41;5068717;28;20025;-26
2023/01/04 06:11:45;;;;;;;37.83;18.63;;;;;;;0.09;88.25;101136.09;5077235;28;20032;-25
2023/01/04 06:14:10;;;;;;;43.13;20.83;;;;;;;0.29;87.46;101152.84;5088596;28;20054;-27
2023/01/04 06:16:36;;;;;;;29.33;15.18;;;;;;;0.12;88.07;101141.94;5088782;28;20476;-28
2023/01/04 06:19:01;;;;;;;25.13;14.52;;;;;;;0.34;87.39;101154.13;5088642;28;20062;-25
2023/01/04 06:21:27;;;;;;;55.97;25.50;;;;;;;0.33;86.56;101147.22;5088316;28;20424;-26
2023/01/04 06:23:52;;;;;;;48.90;20.65;;;;;;;0.15;87.57;101135.59;5088463;28;20039;-25
2023/01/04 06:26:18;;;;;;;34.65;17.75;;;;;;;0.27;88.06;101173.97;5088707;28;20460;-24
2023/01/04 06:28:44;;;;;;;43.60;20.98;;;;;;;0.11;88.63;101142.88;5070378;28;20141;-27
2023/01/04 06:31:10;;;;;;;38.85;20.08;;;;;;;0.36;87.63;101160.06;5088638;28;20494;-27
2023/01/04 06:33:36;;;;;;;53.35;26.52;;;;;;;0.35;87.09;101171.53;5088740;28;20024;-26
2023/01/04 06:36:02;;;;;;;43.83;26.10;;;;;;;0.66;86.73;101176.91;5088047;28;20036;-26
2023/01/04 06:38:27;;;;;;;65.63;35.97;;;;;;;0.68;86.54;101168.91;5070039;28;20131;-25
2023/01/04 06:40:53;;;;;;;49.78;26.40;;;;;;;0.72;87.34;101168.50;5088419;28;20028;-26
2023/01/04 06:43:18;;;;;;;41.42;23.85;;;;;;;0.64;87.08;101163.06;5090088;28;20032;-25
2023/01/04 06:45:44;;;;;;;69.43;38.30;;;;;;;0.76;86.70;101162.03;5092002;28;20024;-26
2023/01/04 06:48:09;;;;;;;50.20;29.20;;;;;;;1.02;86.05;101198.41;5091997;28;20388;-25
2023/01/04 06:50:35;;;;;;;45.70;25.15;;;;;;;1.11;85.33;101175.81;5091765;28;20024;-26
2023/01/04 06:53:00;;;;;;;49.13;28.42;;;;;;;1.60;83.52;101188.19;5091802;28;20039;-27
2023/01/04 06:55:28;;;;;;;57.22;34.38;;;;;;;1.40;84.24;101178.56;5091985;28;20040;-26
2023/01/04 06:57:54;;;;;;;57.63;33.10;;;;;;;1.63;84.40;101202.03;5073624;28;20024;-26
2023/01/04 07:00:20;;;;;;;65.15;36.47;;;;;;;1.94;83.80;101208.94;5091458;28;20016;-26
2023/01/04 07:02:45;;;;;;;55.63;28.35;;;;;;;1.80;84.38;101199.63;5091636;28;20028;-26
2023/01/04 07:05:10;;;;;;;70.18;35.97;;;;;;;1.59;85.19;101180.44;5091493;28;20073;-29
2023/01/04 07:07:36;;;;;;;47.60;26.65;;;;;;;1.87;84.79;101199.09;5091317;28;20074;-29
2023/01/04 07:10:02;;;;;;;35.45;19.67;;;;;;;2.03;83.61;101202.03;5091405;28;20384;-26
2023/01/04 07:12:28;;;;;;;42.83;24.77;;;;;;;1.91;84.65;101200.47;5091372;28;20039;-27
2023/01/04 07:14:53;;;;;;;45.58;27.23;;;;;;;2.04;84.04;101185.25;5073306;28;20028;-25
2023/01/04 07:17:19;;;;;;;37.30;22.35;;;;;;;2.20;84.24;101203.16;5091618;28;20093;-30
2023/01/04 07:19:44;;;;;;;35.38;20.92;;;;;;;2.39;84.07;101197.94;5088335;28;20067;-30
2023/01/04 07:22:09;;;;;;;64.43;32.70;;;;;;;2.37;83.25;101181.44;5068542;28;20581;-26
2023/01/04 07:24:36;;;;;;;58.42;30.08;;;;;;;2.64;82.87;101192.25;5070918;28;20021;-26
2023/01/04 07:27:01;;;;;;;46.88;22.25;;;;;;;2.86;81.99;101206.91;5071230;28;20111;-26
2023/01/04 07:29:27;;;;;;;21.90;12.20;;;;;;;2.60;83.69;101181.16;5071160;28;20125;-30
2023/01/04 07:31:53;;;;;;;27.30;16.75;;;;;;;2.76;83.89;101194.59;5071032;28;20435;-26
2023/01/04 07:34:21;;;;;;;30.25;17.17;;;;;;;2.68;84.16;101162.88;5070109;28;20828;-27
2023/01/04 07:36:47;;;;;;;32.80;17.08;;;;;;;2.61;84.71;101174.91;5070855;28;20711;-25
2023/01/04 07:39:13;;;;;;;27.70;13.80;;;;;;;2.58;84.41;101172.56;5086367;28;20035;-25
2023/01/04 07:41:40;;;;;;;32.28;17.58;;;;;;;2.93;83.78;101194.84;5055155;28;20041;-26
2023/01/04 07:44:06;;;;;;;32.70;15.88;;;;;;;3.05;84.50;101196.38;5050528;28;20033;-26
2023/01/04 07:46:32;;;;;;;35.03;19.92;;;;;;;3.09;84.99;101203.00;5050434;28;20033;-26
2023/01/04 07:48:58;;;;;;;41.17;21.00;;;;;;;3.05;84.64;101180.56;5050583;28;20021;-29
2023/01/04 07:51:24;;;;;;;47.38;25.92;;;;;;;3.35;83.45;101207.66;5057379;28;20040;-26
2023/01/04 07:53:49;;;;;;;51.60;27.48;;;;;;;3.40;82.94;101200.16;5059970;28;20020;-25
2023/01/04 07:56:15;;;;;;;43.85;23.05;;;;;;;3.73;82.24;101216.41;5059056;28;20028;-27
2023/01/04 07:58:41;;;;;;;48.38;25.65;;;;;;;4.01;82.10;101219.88;5060253;28;20094;-26
2023/01/04 08:01:07;;;;;;;31.73;17.40;;;;;;;4.19;81.13;101225.19;5059189;28;20029;-30
2023/01/04 08:03:33;;;;;;;34.10;17.98;;;;;;;4.13;80.48;101236.34;5059140;28;20033;-31
2023/01/04 08:06:03;;;;;;;31.45;17.95;;;;;;;4.30;80.40;101217.06;5059954;28;20489;-31
2023/01/04 08:08:29;;;;;;;29.75;17.92;;;;;;;4.34;80.38;101207.84;5070255;28;20032;-27
2023/01/04 08:10:54;;;;;;;29.88;16.13;;;;;;;4.74;78.90;101211.00;5070208;28;20035;-28
2023/01/04 08:13:19;;;;;;;27.52;15.07;;;;;;;4.54;78.73;101199.78;5070260;28;20028;-27
2023/01/04 08:15:52;;;;;;;29.02;17.13;;;;;;;4.94;79.70;101219.59;5069907;28;20111;-27
2023/01/04 08:18:17;;;;;;;34.50;25.48;;;;;;;5.23;76.43;101206.94;5068134;28;20036;-25
2023/01/04 08:20:42;;;;;;;30.90;18.45;;;;;;;5.65;75.21;101207.97;5070152;28;20481;-27
2023/01/04 08:23:08;;;;;;;31.38;18.17;;;;;;;5.66;75.91;101206.16;5084429;28;20081;-28
2023/01/04 08:25:33;;;;;;;23.52;14.50;;;;;;;5.90;76.05;101230.06;5089541;28;20209;-27
2023/01/04 08:27:59;;;;;;;24.50;14.73;;;;;;;5.74;77.73;101230.84;5071803;28;20500;-28
2023/01/04 08:30:24;;;;;;;29.05;17.98;;;;;;;5.97;77.26;101231.13;5089740;28;20024;-28
2023/01/04 08:32:52;;;;;;;27.25;16.25;;;;;;;5.95;76.66;101216.41;5071448;28;20094;-27
2023/01/04 08:35:18;;;;;;;25.65;15.32;;;;;;;5.82;77.58;101208.84;5090032;28;20028;-28
2023/01/04 08:37:43;;;;;;;23.60;14.73;;;;;;;6.14;76.55;101226.72;5071831;28;20032;-26
2023/01/04 08:40:09;;;;;;;25.33;15.90;;;;;;;6.30;76.49;101206.56;5071474;28;20036;-25
2023/01/04 08:42:34;;;;;;;25.80;15.43;;;;;;;6.46;75.89;101229.59;5089882;28;20039;-26
2023/01/04 08:45:00;;;;;;;26.27;16.48;;;;;;;6.72;74.67;101198.50;5089991;28;20024;-29
2023/01/04 08:47:27;;;;;;;24.25;14.75;;;;;;;6.83;73.17;101208.75;5089530;28;20028;-26
2023/01/04 08:49:52;;;;;;;21.10;13.27;;;;;;;6.84;73.50;101218.38;5062002;28;20049;-30
2023/01/04 08:52:18;;;;;;;21.83;13.68;;;;;;;6.80;73.49;101206.44;5070414;28;20032;-29
2023/01/04 08:54:43;;;;;;;22.85;14.75;;;;;;;6.84;73.86;101207.78;5089717;28;20044;-28
2023/01/04 08:57:09;;;;;;;21.60;13.80;;;;;;;7.05;74.28;101227.66;5089498;28;20106;-27
2023/01/04 08:59:34;;;;;;;24.05;14.13;;;;;;;7.49;72.19;101227.22;5071354;28;20031;-29
2023/01/04 09:01:59;;;;;;;23.35;14.25;;;;;;;7.54;72.06;101221.41;5089070;28;20119;-30
2023/01/04 09:04:25;;;;;;;24.38;15.82;;;;;;;7.65;70.74;101219.22;5088355;28;20020;-25
2023/01/04 09:06:50;;;;;;;27.60;16.58;;;;;;;7.62;71.16;101200.13;5088980;28;20468;-28
2023/01/04 09:09:16;;;;;;;30.88;17.77;;;;;;;7.85;71.39;101208.19;5089488;28;20031;-26
2023/01/04 09:11:41;;;;;;;25.33;15.70;;;;;;;8.08;70.21;101199.47;5087166;28;20531;-27
2023/01/04 09:14:10;;;;;;;23.73;16.05;;;;;;;8.36;69.39;101189.97;5079693;28;20020;-28
2023/01/04 09:16:38;;;;;;;;;;;;;;;8.74;68.40;101208.66;5078849;28;20105;-29
2023/01/04 09:19:04;;;;;;;23.58;15.30;;;;;;;8.56;68.51;101181.53;5063022;28;19919;-25
2023/01/04 09:21:30;;;;;;;37.42;23.30;;;;;;;8.89;68.12;101205.22;5086960;28;20499;-25
2023/01/04 09:23:57;;;;;;;27.27;17.85;;;;;;;9.03;67.78;101204.41;5087854;28;20024;-27
2023/01/04 09:26:22;;;;;;;27.45;17.42;;;;;;;9.40;66.94;101189.44;5088910;28;20057;-28
2023/01/04 09:28:53;;;;;;;26.25;17.35;;;;;;;9.60;67.37;101190.53;5088751;28;20016;-26
2023/01/04 09:31:25;;;;;;;23.52;16.10;;;;;;;9.47;67.25;101182.34;5088948;28;20165;-27
2023/01/04 09:33:51;;;;;;;26.70;16.95;;;;;;;9.38;67.93;101159.50;5070932;28;20711;-28
2023/01/04 09:36:17;;;;;;;26.77;17.85;;;;;;;9.82;66.42;101172.75;5088859;28;20111;-25
2023/01/04 09:38:43;;;;;;;26.02;17.30;;;;;;;9.50;67.17;101163.34;5070742;28;20044;-32
2023/01/04 09:41:27;;;;;;;28.75;18.15;;;;;;;9.99;66.92;101183.19;5088477;28;20089;-26
2023/01/04 09:44:00;;;;;;;26.08;17.23;;;;;;;10.29;66.15;101169.78;5071006;28;20039;-31
2023/01/04 09:46:54;;;;;;;31.90;20.58;;;;;;;10.51;65.55;101173.31;5088833;28;20060;-26
2023/01/04 09:49:30;;;;;;;32.33;19.83;;;;;;;10.61;64.86;101155.16;5070058;28;20476;-26
2023/01/04 09:52:03;;;;;;;31.33;19.77;;;;;;;10.56;65.27;101147.72;5088764;28;20075;-26
2023/01/04 09:54:56;;;;;;;29.88;18.30;;;;;;;10.47;65.88;101153.38;5088662;28;20111;-27
2023/01/04 09:57:25;;;;;;;26.77;18.20;;;;;;;10.93;63.73;101163.59;5088713;28;20020;-25
2023/01/04 10:00:26;;;;;;;27.92;18.85;;;;;;;11.08;64.78;101160.84;5088756;28;20488;-28
2023/01/04 10:03:00;;;;;;;25.05;16.98;;;;;;;11.07;63.96;101151.97;5044713;28;20407;-28
2023/01/04 10:05:28;;;;;;;28.88;18.60;;;;;;;11.57;63.44;101154.53;5088839;28;20122;-26
2023/01/04 10:07:54;;;;;;;26.25;18.23;;;;;;;11.86;62.27;101151.56;5088648;28;20099;-26
2023/01/04 10:10:30;;;;;;;29.98;20.23;;;;;;;11.92;61.99;101139.28;5088474;28;20039;-29
2023/01/04 10:13:01;;;;;;;28.13;18.35;;;;;;;12.09;60.65;101137.03;5070261;28;20515;-27
2023/01/04 10:15:50;;;;;;;29.00;18.02;;;;;;;12.61;60.15;101156.06;5088758;28;20687;-29
2023/01/04 10:18:27;;;;;;;26.25;18.77;;;;;;;12.48;60.65;101145.34;5073438;28;20020;-26
2023/01/04 10:21:17;;;;;;;26.27;16.77;;;;;;;12.99;59.70;101153.53;5092685;28;20403;-25
2023/01/04 10:24:05;;;;;;;27.33;17.00;;;;;;;13.24;58.64;101145.69;5092713;28;20131;-26
2023/01/04 10:26:44;;;;;;;83.95;24.33;;;;;;;13.41;58.84;101129.19;5092407;28;20024;-28
2023/01/04 10:29:23;;;;;;;434.77;69.20;;;;;;;13.98;56.57;101145.44;5092194;28;20028;-27
2023/01/04 10:31:56;;;;;;;26.45;17.92;;;;;;;14.04;58.06;101131.97;5092441;28;20024;-31
2023/01/04 10:34:26;;;;;;;25.65;17.65;;;;;;;14.18;57.06;101123.84;5092132;28;20039;-31
2023/01/04 10:36:57;;;;;;;29.10;17.38;;;;;;;14.42;56.29;101138.31;5092295;28;20078;-31
2023/01/04 10:39:26;;;;;;;29.48;18.08;;;;;;;14.18;56.94;101121.16;5073868;28;20036;-27
2023/01/04 10:42:08;;;;;;;26.38;18.17;;;;;;;14.85;54.26;101125.00;5091998;28;20046;-28
2023/01/04 10:44:49;;;;;;;28.55;18.83;;;;;;;14.97;54.08;101129.63;5091662;28;20089;-28
2023/01/04 10:47:30;;;;;;;31.05;20.73;;;;;;;15.12;53.49;101103.22;5092051;28;20028;-28
2023/01/04 10:50:13;;;;;;;32.38;18.75;;;;;;;14.92;53.56;101105.31;5091956;28;20036;-28
2023/01/04 10:53:03;;;;;;;33.22;21.50;;;;;;;15.44;54.26;101125.38;5092013;28;20031;-27
2023/01/04 10:55:52;;;;;;;32.50;22.58;;;;;;;15.92;52.39;101125.66;5092052;28;20573;-27
2023/01/04 10:58:49;;;;;;;32.28;23.50;;;;;;;15.73;51.65;101119.47;5091555;28;20032;-26
2023/01/04 11:01:14;;;;;;;25.10;16.25;;;;;;;15.98;51.96;101113.97;5075542;28;20118;-27
2023/01/04 11:03:43;;;;;;;22.77;16.27;;;;;;;16.30;50.28;101092.16;5091943;28;20108;-27
2023/01/04 11:06:23;;;;;;;23.10;16.25;;;;;;;16.28;50.21;101105.84;5091421;28;20106;-27
2023/01/04 11:08:52;;;;;;;33.70;21.35;;;;;;;16.38;51.43;101089.13;5091578;28;20499;-28
2023/01/04 11:11:33;;;;;;;35.05;24.42;;;;;;;16.67;49.93;101092.75;5090108;28;20032;-27
2023/01/04 11:13:59;;;;;;;30.10;19.00;;;;;;;16.87;49.22;101092.44;5091992;28;20031;-27
2023/01/04 11:16:25;;;;;;;24.30;16.40;;;;;;;16.65;49.65;101105.66;5091555;28;20028;-27
2023/01/04 11:18:51;;;;;;;92.75;70.40;;;;;;;17.01;49.73;101106.50;5091445;28;20526;-27
2023/01/04 11:21:24;;;;;;;146.40;82.90;;;;;;;17.34;48.51;101102.34;5091380;28;20020;-27
2023/01/04 11:23:49;;;;;;;138.73;77.88;;;;;;;17.56;47.91;101102.50;5091113;28;20482;-28
2023/01/04 11:26:19;;;;;;;35.28;24.30;;;;;;;17.67;47.41;101097.06;5091271;28;20059;-28
2023/01/04 11:28:51;;;;;;;125.70;82.75;;;;;;;18.13;46.78;101094.41;5072371;28;20532;-27
2023/01/04 11:31:49;;;;;;;58.30;43.97;;;;;;;18.25;45.52;101099.75;5073247;28;20404;-28
2023/01/04 11:34:15;;;;;;;23.85;16.75;;;;;;;17.99;46.62;101093.88;5091212;28;20035;-30
2023/01/04 11:36:43;;;;;;;24.38;15.63;;;;;;;17.90;46.33;101100.75;5091068;28;20129;-27
2023/01/04 11:39:26;;;;;;;;;;;;;;;18.41;46.11;101101.63;5091766;28;20032;-28
2023/01/04 11:42:03;;;;;;;20.17;14.50;;;;;;;18.23;46.10;101099.97;5072808;28;20433;-29
2023/01/04 11:44:30;;;;;;;30.37;27.13;;;;;;;18.67;45.21;101094.75;5090950;28;20032;-28
2023/01/04 11:47:18;;;;;;;23.27;14.45;;;;;;;18.58;44.76;101090.00;5072788;28;20270;-27
2023/01/04 11:49:44;;;;;;;25.92;16.98;;;;;;;18.92;44.18;101106.16;5090989;28;20119;-28
2023/01/04 11:52:35;;;;;;;21.50;16.15;;;;;;;18.92;44.12;101103.47;5072153;28;20051;-27
2023/01/04 11:55:27;;;;;;;20.20;14.55;;;;;;;18.78;44.89;101103.81;5090515;28;20020;-27
2023/01/04 11:58:13;;;;;;;23.75;15.85;;;;;;;18.75;44.64;101106.19;5090913;28;20028;-27
2023/01/04 12:00:48;;;;;;;26.50;17.70;;;;;;;18.57;45.23;101093.75;5090658;28;20104;-30
2023/01/04 12:03:25;;;;;;;22.90;15.98;;;;;;;18.57;44.83;101081.06;5090509;28;20043;-27
2023/01/04 12:05:50;;;;;;;22.27;16.15;;;;;;;18.94;44.19;101095.94;5090335;28;20408;-29
2023/01/04 12:08:24;;;;;;;20.90;13.70;;;;;;;18.80;44.63;101088.19;5090334;28;20028;-28
2023/01/04 12:10:50;;;;;;;20.35;13.82;;;;;;;18.41;45.37;101076.50;5088924;28;20028;-26
2023/01/04 12:13:15;;;;;;;17.25;13.65;;;;;;;18.81;44.70;101095.22;5072138;28;20094;-27